Time;durP1;ratioP1;P1;durP2;ratioP2;P2;SDS_P1;SDS_P2;PMS_P1;PMS_P2;Temp;Humidity;BMP_temperature;BMP_pressure;BME280_temperature;BME280_humidity;BME280_pressure;Samples;Min_cycle;Max_cycle;Signal;HPM_P1;HPM_P2
2021/07/16 00:00:16;;;;;;;1.48;1.30;;;;;;;;;;5036232;28;20271;-51
2021/07/16 00:02:43;;;;;;;1.33;1.23;;;;;;;;;;5036020;28;20211;-51
2021/07/16 00:05:09;;;;;;;1.40;1.30;;;;;;;;;;5036008;28;20187;-51
2021/07/16 00:07:35;;;;;;;1.55;1.27;;;;;;;;;;5035482;28;20439;-51
2021/07/16 00:10:01;;;;;;;1.48;1.30;;;;;;;;;;5036040;28;20186;-51
2021/07/16 00:12:27;;;;;;;2.85;1.50;;;;;;;;;;5036287;28;20243;-51
2021/07/16 00:14:53;;;;;;;4.68;1.67;;;;;;;;;;5035903;28;20164;-51
2021/07/16 00:17:19;;;;;;;1.63;1.52;;;;;;;;;;5034760;28;20188;-51
2021/07/16 00:19:45;;;;;;;1.42;1.30;;;;;;;;;;5035694;28;20180;-51
2021/07/16 00:22:12;;;;;;;1.40;1.30;;;;;;;;;;5035803;28;20262;-51
2021/07/16 00:24:37;;;;;;;2.38;1.55;;;;;;;;;;5036047;28;20199;-51
2021/07/16 00:27:05;;;;;;;2.53;1.40;;;;;;;;;;5035407;28;20376;-51
2021/07/16 00:29:31;;;;;;;1.50;1.30;;;;;;;;;;5035142;28;20214;-51
2021/07/16 00:31:57;;;;;;;3.22;1.42;;;;;;;;;;5035430;28;20168;-51
2021/07/16 00:34:23;;;;;;;1.88;1.33;;;;;;;;;;5035196;28;20187;-51
2021/07/16 00:36:49;;;;;;;2.53;1.50;;;;;;;;;;5035328;28;20179;-51
2021/07/16 00:39:15;;;;;;;1.20;1.02;;;;;;;;;;5034535;28;20176;-51
2021/07/16 00:41:41;;;;;;;1.45;1.35;;;;;;;;;;5035662;28;20172;-51
2021/07/16 00:44:07;;;;;;;1.85;1.35;;;;;;;;;;5034391;28;20203;-51
2021/07/16 00:46:33;;;;;;;1.23;1.10;;;;;;;;;;5034721;28;20183;-51
2021/07/16 00:48:59;;;;;;;1.20;1.10;;;;;;;;;;5034730;28;20183;-51
2021/07/16 00:51:25;;;;;;;1.85;1.35;;;;;;;;;;5035032;28;20523;-51
2021/07/16 00:53:51;;;;;;;1.17;1.00;;;;;;;;;;5035351;28;20187;-51
2021/07/16 00:56:17;;;;;;;1.58;1.48;;;;;;;;;;5015119;28;20172;-51
2021/07/16 00:58:43;;;;;;;1.75;1.38;;;;;;;;;;5024459;28;20502;-51
2021/07/16 01:01:09;;;;;;;1.80;1.25;;;;;;;;;;5035302;28;20202;-51
2021/07/16 01:03:36;;;;;;;1.95;1.65;;;;;;;;;;5034928;28;20486;-51
2021/07/16 01:06:02;;;;;;;1.55;1.33;;;;;;;;;;5034758;28;20482;-51
2021/07/16 01:08:28;;;;;;;1.50;1.40;;;;;;;;;;5034981;28;20458;-51
2021/07/16 01:10:55;;;;;;;1.15;1.05;;;;;;;;;;5035004;28;20183;-51
2021/07/16 01:13:22;;;;;;;1.65;1.13;;;;;;;;;;5034433;28;20172;-51
2021/07/16 01:15:48;;;;;;;2.58;1.63;;;;;;;;;;5034035;28;20179;-51
2021/07/16 01:18:14;;;;;;;3.45;1.63;;;;;;;;;;5034653;28;20515;-51
2021/07/16 01:20:40;;;;;;;3.85;1.30;;;;;;;;;;5034987;28;20470;-51
2021/07/16 01:23:11;;;;;;;3.80;1.20;;;;;;;;;;5034702;28;20294;-51
2021/07/16 01:25:37;;;;;;;1.27;1.17;;;;;;;;;;5034900;28;20186;-51
2021/07/16 01:28:03;;;;;;;1.45;1.05;;;;;;;;;;5033945;28;20172;-51
2021/07/16 01:30:30;;;;;;;2.50;1.20;;;;;;;;;;5034759;28;20180;-51
2021/07/16 01:32:57;;;;;;;1.42;1.33;;;;;;;;;;5034634;28;20180;-51
2021/07/16 01:35:24;;;;;;;1.60;1.00;;;;;;;;;;5034306;28;20558;-51
2021/07/16 01:37:51;;;;;;;2.00;1.40;;;;;;;;;;5034551;28;20175;-51
2021/07/16 01:40:18;;;;;;;1.70;1.23;;;;;;;;;;5034745;28;20254;-51
2021/07/16 01:42:47;;;;;;;2.17;1.05;;;;;;;;;;5034294;28;20215;-51
2021/07/16 01:45:15;;;;;;;3.33;1.27;;;;;;;;;;5034211;28;20171;-51
2021/07/16 01:47:44;;;;;;;1.80;1.38;;;;;;;;;;5034134;28;20246;-51
2021/07/16 01:50:11;;;;;;;1.73;1.05;;;;;;;;;;5034254;28;20230;-51
2021/07/16 01:52:37;;;;;;;1.50;1.20;;;;;;;;;;5034501;28;20187;-51
2021/07/16 01:55:04;;;;;;;2.63;1.08;;;;;;;;;;5034089;28;20176;-51
2021/07/16 01:57:30;;;;;;;0.98;0.98;;;;;;;;;;5033954;28;20184;-51
2021/07/16 01:59:56;;;;;;;1.45;1.17;;;;;;;;;;5034807;28;20184;-51
2021/07/16 02:02:22;;;;;;;2.63;1.10;;;;;;;;;;5033976;28;20254;-51
2021/07/16 02:04:48;;;;;;;1.40;1.10;;;;;;;;;;5034238;28;20186;-51
2021/07/16 02:07:14;;;;;;;2.10;1.35;;;;;;;;;;5033994;28;20176;-51
2021/07/16 02:09:40;;;;;;;1.90;1.20;;;;;;;;;;5034245;28;20191;-51
2021/07/16 02:12:06;;;;;;;2.65;1.30;;;;;;;;;;5034674;28;20176;-50
2021/07/16 02:14:32;;;;;;;3.22;1.30;;;;;;;;;;5033973;28;20198;-50
2021/07/16 02:17:02;;;;;;;0.95;0.95;;;;;;;;;;5034059;28;20610;-50
2021/07/16 02:19:28;;;;;;;3.92;1.38;;;;;;;;;;5033843;28;20184;-50
2021/07/16 02:21:54;;;;;;;1.23;1.13;;;;;;;;;;5034380;28;20214;-50
2021/07/16 02:24:21;;;;;;;2.72;1.35;;;;;;;;;;5034110;28;20649;-50
2021/07/16 02:26:47;;;;;;;1.55;1.45;;;;;;;;;;5033620;28;20219;-50
2021/07/16 02:29:13;;;;;;;2.00;1.02;;;;;;;;;;5034079;28;20459;-50
2021/07/16 02:31:39;;;;;;;2.10;1.40;;;;;;;;;;5034269;28;20195;-50
2021/07/16 02:34:05;;;;;;;2.10;1.35;;;;;;;;;;5033637;28;20575;-50
2021/07/16 02:36:31;;;;;;;1.90;1.30;;;;;;;;;;5033193;28;20263;-50
2021/07/16 02:38:57;;;;;;;2.20;1.40;;;;;;;;;;5034284;28;20167;-50
2021/07/16 02:41:23;;;;;;;1.42;1.30;;;;;;;;;;5034066;28;20176;-50
2021/07/16 02:43:49;;;;;;;1.58;1.10;;;;;;;;;;5034075;28;20207;-50
2021/07/16 02:46:15;;;;;;;1.42;1.20;;;;;;;;;;5033327;28;20606;-50
2021/07/16 02:48:41;;;;;;;1.63;1.08;;;;;;;;;;5033286;28;20270;-50
2021/07/16 02:51:07;;;;;;;1.95;1.30;;;;;;;;;;5033598;28;20556;-50
2021/07/16 02:53:33;;;;;;;2.42;1.35;;;;;;;;;;5033725;28;20198;-50
2021/07/16 02:55:59;;;;;;;1.63;1.20;;;;;;;;;;5033432;28;20461;-50
2021/07/16 02:58:25;;;;;;;1.90;1.20;;;;;;;;;;5033712;28;20211;-50
2021/07/16 03:00:51;;;;;;;1.20;1.10;;;;;;;;;;5033777;28;20199;-50
2021/07/16 03:03:17;;;;;;;1.40;1.30;;;;;;;;;;5034914;28;20582;-50
2021/07/16 03:05:43;;;;;;;1.35;1.25;;;;;;;;;;5037197;28;20262;-50
2021/07/16 03:08:11;;;;;;;2.50;1.23;;;;;;;;;;5036856;28;20172;-50
2021/07/16 03:10:38;;;;;;;2.25;1.10;;;;;;;;;;5037395;28;20168;-50
2021/07/16 03:13:08;;;;;;;5.80;1.42;;;;;;;;;;5037418;28;20180;-50
2021/07/16 03:15:35;;;;;;;3.63;1.20;;;;;;;;;;5036998;28;20226;-50
2021/07/16 03:18:01;;;;;;;1.70;1.20;;;;;;;;;;5036247;28;20191;-50
2021/07/16 03:20:29;;;;;;;2.50;1.40;;;;;;;;;;5036658;28;20242;-50
2021/07/16 03:22:55;;;;;;;2.65;1.23;;;;;;;;;;5036668;28;20214;-50
2021/07/16 03:25:22;;;;;;;1.20;1.00;;;;;;;;;;5036632;28;20445;-50
2021/07/16 03:27:49;;;;;;;1.20;1.10;;;;;;;;;;5036398;28;20164;-50
2021/07/16 03:30:16;;;;;;;1.08;1.00;;;;;;;;;;5036953;28;20276;-50
2021/07/16 03:32:43;;;;;;;2.90;1.23;;;;;;;;;;5036537;28;20513;-50
2021/07/16 03:35:10;;;;;;;1.00;1.00;;;;;;;;;;5035869;28;20175;-50
2021/07/16 03:37:37;;;;;;;1.30;1.20;;;;;;;;;;5036207;28;20241;-50
2021/07/16 03:40:03;;;;;;;1.98;1.40;;;;;;;;;;5036703;28;20184;-50
2021/07/16 03:42:29;;;;;;;1.30;1.20;;;;;;;;;;5036579;28;20164;-50
2021/07/16 03:44:55;;;;;;;1.20;1.10;;;;;;;;;;5036066;28;20222;-50
2021/07/16 03:47:21;;;;;;;1.80;1.10;;;;;;;;;;5035804;28;20519;-50
2021/07/16 03:49:47;;;;;;;2.80;1.38;;;;;;;;;;5036063;28;20188;-50
2021/07/16 03:52:13;;;;;;;6.25;1.45;;;;;;;;;;5036363;28;20230;-50
2021/07/16 03:54:41;;;;;;;2.22;1.27;;;;;;;;;;5036433;28;20227;-50
2021/07/16 03:57:07;;;;;;;1.73;1.45;;;;;;;;;;5035010;28;20190;-50
2021/07/16 03:59:34;;;;;;;2.33;1.25;;;;;;;;;;5036183;28;20179;-50
2021/07/16 04:02:00;;;;;;;3.63;1.20;;;;;;;;;;5036308;28;20681;-50
2021/07/16 04:04:27;;;;;;;1.23;1.15;;;;;;;;;;5035740;28;20215;-50
2021/07/16 04:06:54;;;;;;;2.75;1.10;;;;;;;;;;5035824;28;20251;-50
2021/07/16 04:09:26;;;;;;;2.65;1.10;;;;;;;;;;5035876;28;20425;-50
2021/07/16 04:12:06;;;;;;;1.30;1.20;;;;;;;;;;5036215;28;20160;-50
2021/07/16 04:14:33;;;;;;;2.70;1.00;;;;;;;;;;5035474;28;20195;-50
2021/07/16 04:16:59;;;;;;;1.55;1.20;;;;;;;;;;5035473;28;20238;-50
2021/07/16 04:19:25;;;;;;;1.52;1.27;;;;;;;;;;5035088;28;20188;-50
2021/07/16 04:21:51;;;;;;;5.15;1.38;;;;;;;;;;5036162;28;20185;-50
2021/07/16 04:24:17;;;;;;;8.60;1.90;;;;;;;;;;5035090;28;20254;-52
2021/07/16 04:26:43;;;;;;;8.07;2.30;;;;;;;;;;5035420;28;20176;-53
2021/07/16 04:29:09;;;;;;;7.47;2.10;;;;;;;;;;5034933;28;20180;-52
2021/07/16 04:31:35;;;;;;;3.20;1.80;;;;;;;;;;5035419;28;20176;-52
2021/07/16 04:34:01;;;;;;;2.78;1.58;;;;;;;;;;5035177;28;20587;-52
2021/07/16 04:36:27;;;;;;;4.68;1.60;;;;;;;;;;5035207;28;20179;-52
2021/07/16 04:38:53;;;;;;;6.65;1.95;;;;;;;;;;5035547;28;20168;-52
2021/07/16 04:41:19;;;;;;;4.55;1.60;;;;;;;;;;5036047;28;20173;-52
2021/07/16 04:43:45;;;;;;;4.43;1.70;;;;;;;;;;5035101;28;20283;-52
2021/07/16 04:46:11;;;;;;;6.57;1.95;;;;;;;;;;5034964;28;20187;-52
2021/07/16 04:48:37;;;;;;;5.88;1.70;;;;;;;;;;5035179;28;20263;-52
2021/07/16 04:51:03;;;;;;;3.33;1.95;;;;;;;;;;5035325;28;20183;-52
2021/07/16 04:53:28;;;;;;;8.55;1.70;;;;;;;;;;5035258;28;20243;-52
2021/07/16 04:55:54;;;;;;;5.43;1.85;;;;;;;;;;5033393;28;20184;-52
2021/07/16 04:58:20;;;;;;;3.97;1.60;;;;;;;;;;5035170;28;20183;-52
2021/07/16 05:00:46;;;;;;;4.80;1.52;;;;;;;;;;5035742;28;20578;-52
2021/07/16 05:03:12;;;;;;;4.90;1.65;;;;;;;;;;5034694;28;20203;-52
2021/07/16 05:05:38;;;;;;;5.70;1.85;;;;;;;;;;5032643;28;20178;-53
2021/07/16 05:08:04;;;;;;;6.13;1.77;;;;;;;;;;5034331;28;20215;-52
2021/07/16 05:10:31;;;;;;;3.42;1.60;;;;;;;;;;5034680;28;20187;-52
2021/07/16 05:12:57;;;;;;;2.35;1.60;;;;;;;;;;5034887;28;20225;-52
2021/07/16 05:15:23;;;;;;;3.67;1.73;;;;;;;;;;5034764;28;20168;-52
2021/07/16 05:17:49;;;;;;;4.18;1.73;;;;;;;;;;5033910;28;20184;-52
2021/07/16 05:20:15;;;;;;;3.85;1.25;;;;;;;;;;5033825;28;20192;-52
2021/07/16 05:22:41;;;;;;;4.07;1.50;;;;;;;;;;5034536;28;20191;-52
2021/07/16 05:25:07;;;;;;;2.28;1.40;;;;;;;;;;5034372;28;20182;-52
2021/07/16 05:27:33;;;;;;;2.05;1.50;;;;;;;;;;5033547;28;20180;-52
2021/07/16 05:29:59;;;;;;;3.33;1.70;;;;;;;;;;5034834;28;20630;-52
2021/07/16 05:32:25;;;;;;;4.07;1.45;;;;;;;;;;5032305;28;20207;-52
2021/07/16 05:34:51;;;;;;;1.55;1.23;;;;;;;;;;5027735;28;20603;-52
2021/07/16 05:37:17;;;;;;;2.20;1.15;;;;;;;;;;5029457;28;20555;-52
2021/07/16 05:39:43;;;;;;;2.00;1.20;;;;;;;;;;5032709;28;20226;-52
2021/07/16 05:42:09;;;;;;;1.55;1.33;;;;;;;;;;5032506;28;20172;-52
2021/07/16 05:44:35;;;;;;;4.30;1.45;;;;;;;;;;5033405;28;20199;-52
2021/07/16 05:47:02;;;;;;;4.07;1.40;;;;;;;;;;5033685;28;20407;-52
2021/07/16 05:49:28;;;;;;;5.35;1.50;;;;;;;;;;5023327;28;20263;-52
2021/07/16 05:51:54;;;;;;;3.22;1.60;;;;;;;;;;5014858;28;20242;-52
2021/07/16 05:54:20;;;;;;;4.13;1.73;;;;;;;;;;5031361;28;20196;-52
2021/07/16 05:56:46;;;;;;;3.00;2.00;;;;;;;;;;5032979;28;20183;-52
2021/07/16 05:59:12;;;;;;;3.53;1.58;;;;;;;;;;5030096;28;20184;-52
2021/07/16 06:01:38;;;;;;;2.88;1.65;;;;;;;;;;5032735;28;20203;-53
2021/07/16 06:04:09;;;;;;;2.67;1.35;;;;;;;;;;5032365;28;20254;-53
2021/07/16 06:06:36;;;;;;;1.48;1.38;;;;;;;;;;5032724;28;20503;-53
2021/07/16 06:09:02;;;;;;;2.83;1.65;;;;;;;;;;5034081;28;20195;-53
2021/07/16 06:11:28;;;;;;;2.63;1.38;;;;;;;;;;5034336;28;20168;-53
2021/07/16 06:13:54;;;;;;;3.63;1.65;;;;;;;;;;5034666;28;20180;-53
2021/07/16 06:16:20;;;;;;;2.58;1.52;;;;;;;;;;5033950;28;20172;-53
2021/07/16 06:18:46;;;;;;;4.85;1.85;;;;;;;;;;5034085;28;20548;-53
2021/07/16 06:21:12;;;;;;;1.52;1.42;;;;;;;;;;5034228;28;20461;-53
2021/07/16 06:23:39;;;;;;;3.47;1.60;;;;;;;;;;5034038;28;20274;-53
2021/07/16 06:26:05;;;;;;;4.13;1.90;;;;;;;;;;5033750;28;20171;-53
2021/07/16 06:28:31;;;;;;;2.78;1.52;;;;;;;;;;5034222;28;20278;-53
2021/07/16 06:30:57;;;;;;;3.10;1.63;;;;;;;;;;5034249;28;20259;-53
2021/07/16 06:33:23;;;;;;;2.97;1.83;;;;;;;;;;5021324;28;20188;-53
2021/07/16 06:35:49;;;;;;;3.33;1.83;;;;;;;;;;5014071;28;20173;-53
2021/07/16 06:38:15;;;;;;;4.28;1.92;;;;;;;;;;5015869;28;20255;-53
2021/07/16 06:40:41;;;;;;;2.40;1.90;;;;;;;;;;5018126;28;20179;-53
2021/07/16 06:43:09;;;;;;;2.58;1.50;;;;;;;;;;5018149;28;20204;-53
2021/07/16 06:45:36;;;;;;;1.80;1.70;;;;;;;;;;5018319;28;20259;-53
2021/07/16 06:48:02;;;;;;;6.10;2.00;;;;;;;;;;5017531;28;20243;-53
2021/07/16 06:50:28;;;;;;;1.80;1.70;;;;;;;;;;5018377;28;20463;-53
2021/07/16 06:52:54;;;;;;;4.32;1.77;;;;;;;;;;5017644;28;20274;-53
2021/07/16 06:55:20;;;;;;;2.08;1.55;;;;;;;;;;5017819;28;20173;-53
2021/07/16 06:57:46;;;;;;;5.07;2.05;;;;;;;;;;5017274;28;20179;-53
2021/07/16 07:00:12;;;;;;;3.08;1.98;;;;;;;;;;5017842;28;20238;-53
2021/07/16 07:02:38;;;;;;;1.80;1.70;;;;;;;;;;5018106;28;20173;-53
2021/07/16 07:05:05;;;;;;;2.55;1.55;;;;;;;;;;5017958;28;20218;-53
2021/07/16 07:07:31;;;;;;;2.45;1.73;;;;;;;;;;5016777;28;20499;-52
2021/07/16 07:09:57;;;;;;;2.92;2.10;;;;;;;;;;5017873;28;20321;-52
2021/07/16 07:12:23;;;;;;;2.03;1.83;;;;;;;;;;5017960;28;20463;-52
2021/07/16 07:14:49;;;;;;;2.55;1.88;;;;;;;;;;5017540;28;20196;-52
2021/07/16 07:17:15;;;;;;;3.30;1.67;;;;;;;;;;5017036;28;20173;-52
2021/07/16 07:19:41;;;;;;;2.15;1.65;;;;;;;;;;5017389;28;20173;-52
2021/07/16 07:22:07;;;;;;;1.67;1.58;;;;;;;;;;5017074;28;20164;-52
2021/07/16 07:24:33;;;;;;;1.90;1.70;;;;;;;;;;5026774;28;20228;-52
2021/07/16 07:26:59;;;;;;;2.78;1.67;;;;;;;;;;5033563;28;20180;-52
2021/07/16 07:29:25;;;;;;;2.08;1.83;;;;;;;;;;5036133;28;20172;-52
2021/07/16 07:31:51;;;;;;;2.65;1.92;;;;;;;;;;5036527;28;20179;-52
2021/07/16 07:34:18;;;;;;;4.38;1.70;;;;;;;;;;5036651;28;20448;-52
2021/07/16 07:36:48;;;;;;;2.97;1.80;;;;;;;;;;5021014;28;20243;-52
2021/07/16 07:39:14;;;;;;;2.53;1.65;;;;;;;;;;5016080;28;20173;-52
2021/07/16 07:41:45;;;;;;;2.78;1.98;;;;;;;;;;5016706;28;20172;-52
2021/07/16 07:44:11;;;;;;;1.75;1.65;;;;;;;;;;5016689;28;20507;-52
2021/07/16 07:46:37;;;;;;;2.00;1.90;;;;;;;;;;5016381;28;20508;-52
2021/07/16 07:49:06;;;;;;;2.83;1.70;;;;;;;;;;5016104;28;20212;-52
2021/07/16 07:51:32;;;;;;;3.55;2.00;;;;;;;;;;5016650;28;20168;-52
2021/07/16 07:53:58;;;;;;;2.90;2.00;;;;;;;;;;5016960;28;20591;-52
2021/07/16 07:56:24;;;;;;;1.98;1.85;;;;;;;;;;5016395;28;20180;-52
2021/07/16 07:58:50;;;;;;;2.08;1.70;;;;;;;;;;5016448;28;20270;-52
2021/07/16 08:01:16;;;;;;;3.45;2.53;;;;;;;;;;5016343;28;20204;-52
2021/07/16 08:03:42;;;;;;;1.90;1.77;;;;;;;;;;5016117;28;20196;-52
2021/07/16 08:06:08;;;;;;;1.90;1.80;;;;;;;;;;5015863;28;20528;-52
2021/07/16 08:08:34;;;;;;;1.75;1.65;;;;;;;;;;5016553;28;20207;-52
2021/07/16 08:11:00;;;;;;;2.20;1.95;;;;;;;;;;5016318;28;20200;-52
2021/07/16 08:13:26;;;;;;;2.00;1.80;;;;;;;;;;5016533;28;20183;-52
2021/07/16 08:15:52;;;;;;;2.95;1.70;;;;;;;;;;5015973;28;20183;-52
2021/07/16 08:18:18;;;;;;;2.00;1.90;;;;;;;;;;5022019;28;20180;-52
2021/07/16 08:20:44;;;;;;;3.65;2.20;;;;;;;;;;5035906;28;20535;-52
2021/07/16 08:23:10;;;;;;;2.40;2.20;;;;;;;;;;5035953;28;20194;-52
2021/07/16 08:25:36;;;;;;;3.70;2.10;;;;;;;;;;5035659;28;20199;-52
2021/07/16 08:28:03;;;;;;;3.65;1.90;;;;;;;;;;5035566;28;20247;-52
2021/07/16 08:30:29;;;;;;;1.65;1.55;;;;;;;;;;5035517;28;20180;-52
2021/07/16 08:32:56;;;;;;;3.35;2.00;;;;;;;;;;5035101;28;20212;-52
2021/07/16 08:35:22;;;;;;;2.50;2.13;;;;;;;;;;5035492;28;20176;-52
2021/07/16 08:37:48;;;;;;;2.95;2.20;;;;;;;;;;5035227;28;20561;-52
2021/07/16 08:40:14;;;;;;;2.83;2.58;;;;;;;;;;5035092;28;20180;-52
2021/07/16 08:42:40;;;;;;;2.67;2.40;;;;;;;;;;5035491;28;20186;-52
2021/07/16 08:45:07;;;;;;;4.60;2.30;;;;;;;;;;5015957;28;20176;-52
2021/07/16 08:47:33;;;;;;;2.22;2.08;;;;;;;;;;5017898;28;20184;-52
2021/07/16 08:50:01;;;;;;;2.60;2.40;;;;;;;;;;5034173;28;20176;-52
2021/07/16 08:52:28;;;;;;;2.90;2.17;;;;;;;;;;5033682;28;20256;-52
2021/07/16 08:54:55;;;;;;;2.30;2.20;;;;;;;;;;5034520;28;20175;-52
2021/07/16 08:57:24;;;;;;;3.35;2.33;;;;;;;;;;5034467;28;20191;-52
2021/07/16 08:59:50;;;;;;;2.95;2.10;;;;;;;;;;5034259;28;20878;-52
2021/07/16 09:02:16;;;;;;;2.25;2.08;;;;;;;;;;5034211;28;20206;-52
2021/07/16 09:04:43;;;;;;;2.25;2.05;;;;;;;;;;5034769;28;20204;-52
2021/07/16 09:07:09;;;;;;;2.33;2.17;;;;;;;;;;5035053;28;20179;-52
2021/07/16 09:09:39;;;;;;;2.80;2.60;;;;;;;;;;5035823;28;20179;-52
2021/07/16 09:12:07;;;;;;;3.10;2.80;;;;;;;;;;5035313;28;20178;-52
2021/07/16 09:14:34;;;;;;;2.53;2.33;;;;;;;;;;5035505;28;20179;-52
2021/07/16 09:17:06;;;;;;;2.45;2.25;;;;;;;;;;5034718;28;20183;-52
2021/07/16 09:19:40;;;;;;;2.92;2.40;;;;;;;;;;5034665;28;20271;-52
2021/07/16 09:22:09;;;;;;;2.45;2.33;;;;;;;;;;5035157;28;20176;-52
2021/07/16 09:24:35;;;;;;;2.95;2.75;;;;;;;;;;5035202;28;20237;-52
2021/07/16 09:27:02;;;;;;;3.00;2.80;;;;;;;;;;5034397;28;20172;-52
2021/07/16 09:29:29;;;;;;;2.95;2.60;;;;;;;;;;5035020;28;20159;-52
2021/07/16 09:32:02;;;;;;;2.90;2.70;;;;;;;;;;5034943;28;20218;-52
2021/07/16 09:34:28;;;;;;;3.13;2.63;;;;;;;;;;5034985;28;20642;-52
2021/07/16 09:36:54;;;;;;;4.15;2.95;;;;;;;;;;5033490;28;20187;-52
2021/07/16 09:39:24;;;;;;;3.20;2.80;;;;;;;;;;5033780;28;20247;-52
2021/07/16 09:41:51;;;;;;;2.75;2.55;;;;;;;;;;5034526;28;20199;-52
2021/07/16 09:44:40;;;;;;;2.58;2.38;;;;;;;;;;5034059;28;20459;-52
2021/07/16 09:47:13;;;;;;;2.97;2.78;;;;;;;;;;5020513;28;20511;-52
2021/07/16 09:49:40;;;;;;;3.55;3.13;;;;;;;;;;5032905;28;20229;-52
2021/07/16 09:52:07;;;;;;;2.95;2.75;;;;;;;;;;5032308;28;20199;-52
2021/07/16 09:54:33;;;;;;;3.08;2.88;;;;;;;;;;5032440;28;20179;-52
2021/07/16 09:56:59;;;;;;;3.40;3.10;;;;;;;;;;5050706;28;20316;-52
2021/07/16 09:59:28;;;;;;;3.40;3.00;;;;;;;;;;5035198;28;20171;-52
2021/07/16 10:01:55;;;;;;;3.17;2.97;;;;;;;;;;5033284;28;20195;-52
2021/07/16 10:04:23;;;;;;;3.78;2.85;;;;;;;;;;5034406;28;20470;-52
2021/07/16 10:06:50;;;;;;;5.95;3.10;;;;;;;;;;5033835;28;20179;-52
2021/07/16 10:09:17;;;;;;;3.28;2.97;;;;;;;;;;5034033;28;20547;-52
2021/07/16 10:11:46;;;;;;;3.80;3.50;;;;;;;;;;5035400;28;20194;-52
2021/07/16 10:14:13;;;;;;;2.97;2.75;;;;;;;;;;5038110;28;20184;-52
2021/07/16 10:16:39;;;;;;;3.10;2.85;;;;;;;;;;5038289;28;20250;-52
2021/07/16 10:19:05;;;;;;;3.25;2.95;;;;;;;;;;5027325;28;20206;-52
2021/07/16 10:21:32;;;;;;;4.30;3.10;;;;;;;;;;5030887;28;20192;-52
2021/07/16 10:23:58;;;;;;;3.28;2.97;;;;;;;;;;5037411;28;20207;-52
2021/07/16 10:26:25;;;;;;;4.63;3.20;;;;;;;;;;5037695;28;20267;-52
2021/07/16 10:28:52;;;;;;;3.53;2.90;;;;;;;;;;5037585;28;20182;-52
2021/07/16 10:31:32;;;;;;;3.30;3.00;;;;;;;;;;5037958;28;20427;-52
2021/07/16 10:34:04;;;;;;;6.13;3.00;;;;;;;;;;5037730;28;20186;-52
2021/07/16 10:36:50;;;;;;;3.60;3.30;;;;;;;;;;5037538;28;20251;-52
2021/07/16 10:39:20;;;;;;;3.83;3.53;;;;;;;;;;5037710;28;20178;-52
2021/07/16 10:41:46;;;;;;;3.42;3.13;;;;;;;;;;5037865;28;20168;-52
2021/07/16 10:44:13;;;;;;;3.28;2.97;;;;;;;;;;5037036;28;20585;-52
2021/07/16 10:46:43;;;;;;;3.83;3.08;;;;;;;;;;5037478;28;20164;-52
2021/07/16 10:49:11;;;;;;;3.95;3.47;;;;;;;;;;5026969;28;20230;-52
2021/07/16 10:51:37;;;;;;;4.90;3.92;;;;;;;;;;5017677;28;20536;-52
2021/07/16 10:54:05;;;;;;;5.50;3.90;;;;;;;;;;5017907;28;20173;-52
2021/07/16 10:56:38;;;;;;;4.28;3.88;;;;;;;;;;5021049;28;20245;-52
2021/07/16 10:59:04;;;;;;;5.75;4.25;;;;;;;;;;5037340;28;20180;-52
2021/07/16 11:01:32;;;;;;;5.70;4.65;;;;;;;;;;5037388;28;20189;-52
2021/07/16 11:04:00;;;;;;;5.40;4.90;;;;;;;;;;5037340;28;20495;-52
2021/07/16 11:06:46;;;;;;;5.20;4.60;;;;;;;;;;5036682;28;20550;-52
2021/07/16 11:09:12;;;;;;;6.88;4.57;;;;;;;;;;5037489;28;20203;-52
2021/07/16 11:11:39;;;;;;;6.32;5.50;;;;;;;;;;5036981;28;20222;-52
2021/07/16 11:14:06;;;;;;;5.63;5.13;;;;;;;;;;5037062;28;20254;-52
2021/07/16 11:16:32;;;;;;;9.20;5.95;;;;;;;;;;5036887;28;20180;-52
2021/07/16 11:19:03;;;;;;;7.80;5.20;;;;;;;;;;5028014;28;20184;-52
2021/07/16 11:21:41;;;;;;;10.02;6.25;;;;;;;;;;5030567;28;20222;-52
2021/07/16 11:24:19;;;;;;;6.65;5.85;;;;;;;;;;5035723;28;20578;-52
2021/07/16 11:26:48;;;;;;;9.75;7.13;;;;;;;;;;5032193;28;20190;-52
2021/07/16 11:29:14;;;;;;;12.07;7.50;;;;;;;;;;5036751;28;20180;-52
2021/07/16 11:31:40;;;;;;;10.07;7.15;;;;;;;;;;5036870;28;20246;-52
2021/07/16 11:34:10;;;;;;;12.93;8.63;;;;;;;;;;5034087;28;20211;-52
2021/07/16 11:36:36;;;;;;;14.27;8.50;;;;;;;;;;5036523;28;20180;-52
2021/07/16 11:39:03;;;;;;;14.52;8.30;;;;;;;;;;5037147;28;20202;-52
2021/07/16 11:41:30;;;;;;;11.95;7.63;;;;;;;;;;5036577;28;20273;-52
2021/07/16 11:43:58;;;;;;;9.20;7.03;;;;;;;;;;5036334;28;20208;-52
2021/07/16 11:46:31;;;;;;;11.88;8.07;;;;;;;;;;5036020;28;20164;-52
2021/07/16 11:48:57;;;;;;;11.10;7.68;;;;;;;;;;5027420;28;20180;-52
2021/07/16 11:51:29;;;;;;;11.70;7.40;;;;;;;;;;5021923;28;20191;-52
2021/07/16 11:53:57;;;;;;;12.43;8.43;;;;;;;;;;5035989;28;20206;-52
2021/07/16 11:56:28;;;;;;;12.02;7.00;;;;;;;;;;5035877;28;20523;-52
2021/07/16 11:58:54;;;;;;;10.82;7.68;;;;;;;;;;5036062;28;20175;-52
2021/07/16 12:01:20;;;;;;;13.90;8.05;;;;;;;;;;5036442;28;20196;-52
2021/07/16 12:03:46;;;;;;;15.23;7.93;;;;;;;;;;5036360;28;20291;-48
2021/07/16 12:06:16;;;;;;;15.27;7.93;;;;;;;;;;5035544;28;20214;-48
2021/07/16 12:08:46;;;;;;;10.45;8.13;;;;;;;;;;5036073;28;20160;-48
2021/07/16 12:11:16;;;;;;;10.75;7.55;;;;;;;;;;5036149;28;20586;-48
2021/07/16 12:13:42;;;;;;;9.48;7.45;;;;;;;;;;5035900;28;20172;-48
2021/07/16 12:16:12;;;;;;;8.25;7.00;;;;;;;;;;5035352;28;20546;-49
2021/07/16 12:18:39;;;;;;;9.45;7.32;;;;;;;;;;5036048;28;20170;-49
2021/07/16 12:21:05;;;;;;;7.90;6.88;;;;;;;;;;5035463;28;20255;-48
2021/07/16 12:23:31;;;;;;;10.57;7.22;;;;;;;;;;5035769;28;20310;-48
2021/07/16 12:26:16;;;;;;;11.73;7.03;;;;;;;;;;5033901;28;20255;-49
2021/07/16 12:28:42;;;;;;;11.15;7.93;;;;;;;;;;5039809;28;20203;-48
2021/07/16 12:31:08;;;;;;;9.35;6.80;;;;;;;;;;5035383;28;20180;-48
2021/07/16 12:33:35;;;;;;;12.10;7.15;;;;;;;;;;5035490;28;20222;-48
2021/07/16 12:36:01;;;;;;;11.65;7.75;;;;;;;;;;5034232;28;20513;-48
2021/07/16 12:38:31;;;;;;;10.30;7.35;;;;;;;;;;5035940;28;20266;-48
2021/07/16 12:41:05;;;;;;;8.68;7.15;;;;;;;;;;5035934;28;20255;-48
2021/07/16 12:43:42;;;;;;;9.48;7.03;;;;;;;;;;5035094;28;20194;-48
2021/07/16 12:46:09;;;;;;;9.55;7.28;;;;;;;;;;5035111;28;20183;-47
2021/07/16 12:48:36;;;;;;;9.18;7.65;;;;;;;;;;5037583;28;20182;-48
2021/07/16 12:51:13;;;;;;;10.32;6.75;;;;;;;;;;5047136;28;20184;-48
2021/07/16 12:53:45;;;;;;;9.95;7.60;;;;;;;;;;5035291;28;20187;-48
2021/07/16 12:56:34;;;;;;;13.07;7.47;;;;;;;;;;5034957;28;20435;-49
2021/07/16 12:59:01;;;;;;;10.45;8.07;;;;;;;;;;5045420;28;20194;-48
2021/07/16 13:01:27;;;;;;;11.00;7.25;;;;;;;;;;5035200;28;20215;-48
2021/07/16 13:03:53;;;;;;;10.38;7.93;;;;;;;;;;5034736;28;20629;-48
2021/07/16 13:06:25;;;;;;;8.80;7.43;;;;;;;;;;5034810;28;20167;-48
2021/07/16 13:09:14;;;;;;;12.80;8.63;;;;;;;;;;5035475;28;20851;-48
2021/07/16 13:11:40;;;;;;;9.65;7.25;;;;;;;;;;5034592;28;20703;-48
2021/07/16 13:14:07;;;;;;;12.15;8.07;;;;;;;;;;5034523;28;20191;-48
2021/07/16 13:16:33;;;;;;;9.27;7.28;;;;;;;;;;5034927;28;20245;-49
2021/07/16 13:19:00;;;;;;;14.90;7.53;;;;;;;;;;5034991;28;20263;-48
2021/07/16 13:21:26;;;;;;;10.52;7.30;;;;;;;;;;5035233;28;20208;-48
2021/07/16 13:23:52;;;;;;;17.55;7.93;;;;;;;;;;5035021;28;20441;-48
2021/07/16 13:26:19;;;;;;;10.85;8.10;;;;;;;;;;5034964;28;20183;-48
2021/07/16 13:28:46;;;;;;;8.93;7.25;;;;;;;;;;5034416;28;20183;-48
2021/07/16 13:31:13;;;;;;;15.25;7.97;;;;;;;;;;5034782;28;20255;-49
2021/07/16 13:33:39;;;;;;;11.32;8.27;;;;;;;;;;5034822;28;20194;-48
2021/07/16 13:36:05;;;;;;;10.95;7.43;;;;;;;;;;5034541;28;20194;-48
2021/07/16 13:38:32;;;;;;;10.05;7.50;;;;;;;;;;5034847;28;20567;-47
2021/07/16 13:41:02;;;;;;;9.55;7.75;;;;;;;;;;5034627;28;20559;-48
2021/07/16 13:43:28;;;;;;;9.32;7.47;;;;;;;;;;5034046;28;20199;-48
2021/07/16 13:45:55;;;;;;;9.85;7.60;;;;;;;;;;5034746;28;20183;-48
2021/07/16 13:48:21;;;;;;;9.27;7.57;;;;;;;;;;5030404;28;20445;-48
2021/07/16 13:50:47;;;;;;;8.20;7.00;;;;;;;;;;5025846;28;20179;-48
2021/07/16 13:53:13;;;;;;;8.13;6.68;;;;;;;;;;5034439;28;20211;-48
2021/07/16 13:55:39;;;;;;;7.30;6.55;;;;;;;;;;5034554;28;20187;-49
2021/07/16 13:58:05;;;;;;;9.43;6.95;;;;;;;;;;5033553;28;20184;-48
2021/07/16 14:00:31;;;;;;;7.88;7.07;;;;;;;;;;5034076;28;20203;-48
2021/07/16 14:02:57;;;;;;;10.10;8.27;;;;;;;;;;5033649;28;20278;-48
2021/07/16 14:05:23;;;;;;;11.73;9.63;;;;;;;;;;5034345;28;20168;-48
2021/07/16 14:07:50;;;;;;;12.32;9.90;;;;;;;;;;5034037;28;20243;-48
2021/07/16 14:10:17;;;;;;;12.95;10.48;;;;;;;;;;5033939;28;20184;-48
2021/07/16 14:12:43;;;;;;;14.23;12.07;;;;;;;;;;5033639;28;20195;-48
2021/07/16 14:15:11;;;;;;;14.35;11.30;;;;;;;;;;5034663;28;20175;-49
2021/07/16 14:17:37;;;;;;;18.48;15.45;;;;;;;;;;5033215;28;20184;-48
2021/07/16 14:20:04;;;;;;;21.13;17.52;;;;;;;;;;5033878;28;20188;-49
2021/07/16 14:22:30;;;;;;;25.73;20.52;;;;;;;;;;5034398;28;20543;-48
2021/07/16 14:24:56;;;;;;;24.48;21.88;;;;;;;;;;5033995;28;20494;-48
2021/07/16 14:27:22;;;;;;;24.77;21.80;;;;;;;;;;5033415;28;20176;-48
2021/07/16 14:29:48;;;;;;;32.58;23.63;;;;;;;;;;5033920;28;20194;-49
2021/07/16 14:32:14;;;;;;;28.38;23.58;;;;;;;;;;5034063;28;20167;-48
2021/07/16 14:34:40;;;;;;;27.08;23.88;;;;;;;;;;5034616;28;20251;-48
2021/07/16 14:37:06;;;;;;;29.30;25.70;;;;;;;;;;5032915;28;20555;-49
2021/07/16 14:39:32;;;;;;;31.02;26.25;;;;;;;;;;5033461;28;20187;-48